createdAt,value
2022-10-01T00:01:16.215Z,10.70
2022-10-01T00:03:43.857Z,10.70
2022-10-01T00:06:17.721Z,10.60
2022-10-01T00:08:48.791Z,10.60
2022-10-01T00:11:21.740Z,10.70
2022-10-01T00:13:49.122Z,10.60
2022-10-01T00:16:19.077Z,10.60
2022-10-01T00:18:47.991Z,10.60
2022-10-01T00:21:21.198Z,10.90
2022-10-01T00:23:48.597Z,10.70
2022-10-01T00:26:21.148Z,10.70
2022-10-01T00:28:53.218Z,10.70
2022-10-01T00:31:20.431Z,10.70
2022-10-01T00:33:47.572Z,10.70
2022-10-01T00:36:14.610Z,10.70
2022-10-01T00:38:41.549Z,10.70
2022-10-01T00:41:09.447Z,10.70
2022-10-01T00:43:43.101Z,10.80
2022-10-01T00:46:23.789Z,10.80
2022-10-01T00:48:53.661Z,10.80
2022-10-01T00:51:21.149Z,10.90
2022-10-01T00:53:48.295Z,11.20
2022-10-01T00:56:15.191Z,10.90
2022-10-01T00:58:45.233Z,10.90
2022-10-01T01:01:12.153Z,10.90
2022-10-01T01:03:39.147Z,11.00
2022-10-01T01:06:08.083Z,11.30
2022-10-01T01:08:35.148Z,11.10
2022-10-01T01:11:36.219Z,11.10
2022-10-01T01:14:32.071Z,11.20
2022-10-01T01:17:08.551Z,11.20
2022-10-01T01:20:10.719Z,11.20
2022-10-01T01:22:44.592Z,11.30
2022-10-01T01:25:26.266Z,11.20
2022-10-01T01:27:59.285Z,11.20
2022-10-01T01:30:26.952Z,11.30
2022-10-01T01:33:09.311Z,11.60
2022-10-01T01:35:44.174Z,11.20
2022-10-01T01:38:19.355Z,11.40
2022-10-01T01:40:51.537Z,11.20
2022-10-01T01:43:24.116Z,11.20
2022-10-01T01:45:55.126Z,11.20
2022-10-01T01:48:26.382Z,11.20
2022-10-01T01:51:17.210Z,11.20
2022-10-01T01:53:44.287Z,11.20
2022-10-01T01:56:11.264Z,11.10
2022-10-01T01:58:39.234Z,11.10
2022-10-01T02:01:06.181Z,11.00
2022-10-01T02:03:35.341Z,11.10
2022-10-01T02:06:13.305Z,11.30
2022-10-01T02:09:01.991Z,11.00
2022-10-01T02:11:44.451Z,11.00
2022-10-01T02:14:23.064Z,11.00
2022-10-01T02:17:16.702Z,10.90
2022-10-01T02:19:52.371Z,10.90
2022-10-01T02:22:34.218Z,10.90
2022-10-01T02:25:04.475Z,10.90
2022-10-01T02:27:56.076Z,10.90
2022-10-01T02:30:23.093Z,10.90
2022-10-01T02:32:51.314Z,10.90
2022-10-01T02:35:20.255Z,10.90
2022-10-01T02:37:50.347Z,10.90
2022-10-01T02:40:26.341Z,11.00
2022-10-01T02:42:56.769Z,11.00
2022-10-01T02:45:26.368Z,11.00
2022-10-01T02:48:04.661Z,11.10
2022-10-01T02:50:42.733Z,11.20
2022-10-01T02:53:22.655Z,11.50
2022-10-01T02:55:50.902Z,11.30
2022-10-01T02:58:19.269Z,11.30
2022-10-01T03:00:46.156Z,11.40
2022-10-01T03:03:13.107Z,11.50
2022-10-01T03:05:40.178Z,11.60
2022-10-01T03:08:07.070Z,11.70
2022-10-01T03:10:34.743Z,11.70
2022-10-01T03:13:01.781Z,11.80
2022-10-01T03:15:28.992Z,11.90
2022-10-01T03:17:55.970Z,11.90
2022-10-01T03:20:23.490Z,12.00
2022-10-01T03:22:50.496Z,12.00
2022-10-01T03:25:17.729Z,12.10
2022-10-01T03:27:46.093Z,12.10
2022-10-01T03:30:13.438Z,12.10
2022-10-01T03:32:40.446Z,12.40
2022-10-01T03:35:07.744Z,12.20
2022-10-01T03:37:34.663Z,12.20
2022-10-01T03:40:01.729Z,12.20
2022-10-01T03:42:28.559Z,12.20
2022-10-01T03:44:55.926Z,12.30
2022-10-01T03:47:24.265Z,12.30
2022-10-01T03:49:51.174Z,12.30
2022-10-01T03:52:18.000Z,12.50
2022-10-01T03:54:44.946Z,12.50
2022-10-01T03:57:11.848Z,12.50
2022-10-01T03:59:38.705Z,12.50
2022-10-01T04:02:05.723Z,12.50
2022-10-01T04:04:32.738Z,12.50
2022-10-01T04:06:59.640Z,12.60
2022-10-01T04:09:26.484Z,12.60
2022-10-01T04:11:53.632Z,12.60
2022-10-01T04:14:20.535Z,12.60
2022-10-01T04:16:49.277Z,12.60
2022-10-01T04:19:16.116Z,12.70
2022-10-01T04:21:42.956Z,12.70
2022-10-01T04:24:09.875Z,12.70
2022-10-01T04:26:36.780Z,12.70
2022-10-01T04:29:03.721Z,12.70
2022-10-01T04:31:35.062Z,12.80
2022-10-01T04:34:02.396Z,13.10
2022-10-01T04:36:29.346Z,12.80
2022-10-01T04:39:01.677Z,12.80
2022-10-01T04:41:31.000Z,12.90
2022-10-01T04:43:59.759Z,12.90
2022-10-01T04:46:28.080Z,12.90
2022-10-01T04:48:55.071Z,12.90
2022-10-01T04:51:22.033Z,12.90
2022-10-01T04:53:49.219Z,12.90
2022-10-01T04:56:16.307Z,12.90
2022-10-01T04:58:43.128Z,12.90
2022-10-01T05:01:09.968Z,12.90
2022-10-01T05:03:36.846Z,13.30
2022-10-01T05:06:03.714Z,12.90
2022-10-01T05:08:31.181Z,13.00
2022-10-01T05:11:00.536Z,13.00
2022-10-01T05:13:30.203Z,13.00
2022-10-01T05:15:57.889Z,13.10
2022-10-01T05:18:25.236Z,13.10
2022-10-01T05:20:52.072Z,13.10
2022-10-01T05:23:19.048Z,13.20
2022-10-01T05:25:47.133Z,13.20
2022-10-01T05:28:17.239Z,13.10
2022-10-01T05:30:48.075Z,13.10
2022-10-01T05:33:15.067Z,13.00
2022-10-01T05:35:42.222Z,12.90
2022-10-01T05:38:09.118Z,12.90
2022-10-01T05:40:36.301Z,12.80
2022-10-01T05:43:04.350Z,12.80
2022-10-01T05:45:32.144Z,12.70
2022-10-01T05:48:00.998Z,12.60
2022-10-01T05:50:31.340Z,12.60
2022-10-01T05:52:59.274Z,12.50
2022-10-01T05:55:26.684Z,12.50
2022-10-01T05:57:58.798Z,12.40
2022-10-01T06:00:29.054Z,12.30
2022-10-01T06:02:58.192Z,12.30
2022-10-01T06:05:25.960Z,12.30
2022-10-01T06:07:53.544Z,12.20
2022-10-01T06:10:21.710Z,12.10
2022-10-01T06:12:49.054Z,12.00
2022-10-01T06:15:17.001Z,11.90
2022-10-01T06:17:45.122Z,11.90
2022-10-01T06:20:17.270Z,11.80
2022-10-01T06:22:44.885Z,11.80
2022-10-01T06:25:13.915Z,11.80
2022-10-01T06:27:41.204Z,11.80
2022-10-01T06:30:08.598Z,11.80
2022-10-01T06:32:36.222Z,11.80
2022-10-01T06:35:03.750Z,11.70
2022-10-01T06:37:30.696Z,11.80
2022-10-01T06:39:57.646Z,11.70
2022-10-01T06:42:24.885Z,11.80
2022-10-01T06:44:51.923Z,11.80
2022-10-01T06:47:18.913Z,11.80
2022-10-01T06:49:47.801Z,11.80
2022-10-01T06:52:33.913Z,11.80
2022-10-01T06:55:01.559Z,11.80
2022-10-01T06:57:29.100Z,11.80
2022-10-01T06:59:56.528Z,11.80
2022-10-01T07:02:29.017Z,11.80
2022-10-01T07:04:59.543Z,11.80
2022-10-01T07:07:30.272Z,11.80
2022-10-01T07:10:01.279Z,11.80
2022-10-01T07:12:44.782Z,11.80
2022-10-01T07:15:23.352Z,11.80
2022-10-01T07:17:51.903Z,11.80
2022-10-01T07:20:20.826Z,11.90
2022-10-01T07:22:49.996Z,11.90
2022-10-01T07:25:23.531Z,11.90
2022-10-01T07:32:09.142Z,12.00
2022-10-01T07:37:48.461Z,12.00
2022-10-01T07:40:16.771Z,12.00
2022-10-01T07:42:51.851Z,12.00
2022-10-01T07:45:18.722Z,12.10
2022-10-01T07:48:01.839Z,12.00
2022-10-01T07:50:33.425Z,12.10
2022-10-01T07:53:00.310Z,12.10
2022-10-01T07:55:30.573Z,12.10
2022-10-01T07:58:01.433Z,12.10
2022-10-01T08:00:30.421Z,12.10
2022-10-01T08:02:57.413Z,12.10
2022-10-01T08:05:27.089Z,12.10
2022-10-01T08:07:57.615Z,12.10
2022-10-01T08:10:24.490Z,12.10
2022-10-01T08:12:51.334Z,12.10
2022-10-01T08:15:18.888Z,12.10
2022-10-01T08:17:45.797Z,12.10
2022-10-01T08:20:13.866Z,12.00
2022-10-01T08:22:42.346Z,12.00
2022-10-01T08:25:10.059Z,12.00
2022-10-01T08:27:37.203Z,12.00
2022-10-01T08:30:04.556Z,12.00
2022-10-01T08:32:31.660Z,12.10
2022-10-01T08:34:59.963Z,12.10
2022-10-01T08:37:30.103Z,12.10
2022-10-01T08:39:57.645Z,12.10
2022-10-01T08:42:55.622Z,12.10
2022-10-01T08:45:44.746Z,12.10
2022-10-01T08:48:31.775Z,12.10
2022-10-01T08:51:08.015Z,12.10
2022-10-01T08:54:03.515Z,12.10
2022-10-01T08:56:41.631Z,12.10
2022-10-01T08:59:14.698Z,12.20
2022-10-01T09:01:41.573Z,12.20
2022-10-01T09:04:08.530Z,12.30
2022-10-01T09:06:37.688Z,12.40
2022-10-01T09:09:28.401Z,12.50
2022-10-01T09:12:13.312Z,12.60
2022-10-01T09:14:46.116Z,12.70
2022-10-01T09:17:46.861Z,12.70
2022-10-01T09:20:31.336Z,12.70
2022-10-01T09:23:08.495Z,12.80
2022-10-01T09:25:37.860Z,12.80
2022-10-01T09:28:23.361Z,12.90
2022-10-01T09:30:54.823Z,12.90
2022-10-01T09:33:28.069Z,13.00
2022-10-01T09:36:19.882Z,13.10
2022-10-01T09:38:57.935Z,13.10
2022-10-01T09:41:24.945Z,13.20
2022-10-01T09:43:51.823Z,13.30
2022-10-01T09:46:20.144Z,13.30
2022-10-01T09:49:12.838Z,13.40
2022-10-01T09:51:51.544Z,13.40
2022-10-01T09:54:36.019Z,13.50
2022-10-01T09:57:28.298Z,13.60
2022-10-01T10:00:14.988Z,13.70
2022-10-01T10:02:49.309Z,13.80
2022-10-01T10:05:16.645Z,13.90
2022-10-01T10:07:53.150Z,14.20
2022-10-01T10:10:28.431Z,14.30
2022-10-01T10:13:02.979Z,14.50
2022-10-01T10:15:32.520Z,14.60
2022-10-01T10:18:20.396Z,14.70
2022-10-01T10:20:53.965Z,14.70
2022-10-01T10:23:23.377Z,14.80
2022-10-01T10:25:56.602Z,15.00
2022-10-01T10:28:24.390Z,15.10
2022-10-01T10:30:53.531Z,15.30
2022-10-01T10:33:21.970Z,15.70
2022-10-01T10:36:04.524Z,15.70
2022-10-01T10:38:34.231Z,16.10
2022-10-01T10:41:01.812Z,16.20
2022-10-01T10:43:34.587Z,16.20
2022-10-01T10:46:01.889Z,16.20
2022-10-01T10:48:33.238Z,16.20
2022-10-01T10:51:02.126Z,16.30
2022-10-01T10:53:40.601Z,16.40
2022-10-01T10:56:22.643Z,16.50
2022-10-01T10:59:08.199Z,16.50
2022-10-01T11:01:41.607Z,16.60
2022-10-01T11:04:25.691Z,16.50
2022-10-01T11:06:58.297Z,16.20
2022-10-01T11:09:32.634Z,16.00
2022-10-01T11:12:29.606Z,15.80
2022-10-01T11:15:26.209Z,15.70
2022-10-01T11:18:02.331Z,15.70
2022-10-01T11:20:55.876Z,15.60
2022-10-01T11:24:07.758Z,15.50
2022-10-01T11:26:44.007Z,15.60
2022-10-01T11:29:29.399Z,15.50
2022-10-01T11:32:02.734Z,15.40
2022-10-01T11:34:41.613Z,15.50
2022-10-01T11:37:31.383Z,15.70
2022-10-01T11:40:02.832Z,15.90
2022-10-01T11:42:35.539Z,16.00
2022-10-01T11:45:21.264Z,16.30
2022-10-01T11:47:59.294Z,16.40
2022-10-01T11:50:39.262Z,16.50
2022-10-01T11:53:21.425Z,16.60
2022-10-01T11:56:18.566Z,16.70
2022-10-01T11:58:57.371Z,16.70
2022-10-01T12:01:24.325Z,16.80
2022-10-01T12:03:54.206Z,16.80
2022-10-01T12:06:29.409Z,16.90
2022-10-01T12:09:23.240Z,17.00
2022-10-01T12:12:03.730Z,17.10
2022-10-01T12:14:52.244Z,17.00
2022-10-01T12:17:44.090Z,17.00
2022-10-01T12:20:39.115Z,17.00
2022-10-01T12:23:12.283Z,17.00
2022-10-01T12:25:51.580Z,16.80
2022-10-01T12:28:59.352Z,16.60
2022-10-01T12:31:42.043Z,16.50
2022-10-01T12:34:26.644Z,16.40
2022-10-01T12:37:12.857Z,16.40
2022-10-01T12:39:54.089Z,16.40
2022-10-01T12:42:31.406Z,16.30
2022-10-01T12:45:30.355Z,16.40
2022-10-01T12:48:15.737Z,16.40
2022-10-01T12:51:13.249Z,16.30
2022-10-01T12:54:13.521Z,16.10
2022-10-01T12:56:43.954Z,16.00
2022-10-01T12:59:32.627Z,16.00
2022-10-01T13:02:18.125Z,15.90
2022-10-01T13:05:03.998Z,15.90
2022-10-01T13:07:33.929Z,15.90
2022-10-01T13:10:19.950Z,15.90
2022-10-01T13:13:14.579Z,16.00
2022-10-01T13:15:47.136Z,16.20
2022-10-01T13:18:40.506Z,16.20
2022-10-01T13:21:38.469Z,16.30
2022-10-01T13:24:20.312Z,16.40
2022-10-01T13:27:01.498Z,16.50
2022-10-01T13:29:50.141Z,16.60
2022-10-01T13:32:30.984Z,16.60
2022-10-01T13:35:00.956Z,16.70
2022-10-01T13:37:37.476Z,16.70
2022-10-01T13:40:21.347Z,16.80
2022-10-01T13:42:50.130Z,16.70
2022-10-01T13:45:37.364Z,16.70
2022-10-01T13:48:26.272Z,16.70
2022-10-01T13:51:12.729Z,16.70
2022-10-01T13:53:42.734Z,16.70
2022-10-01T13:56:13.166Z,16.80
2022-10-01T13:58:42.042Z,17.00
2022-10-01T14:01:24.003Z,17.20
2022-10-01T14:03:58.726Z,17.50
2022-10-01T14:06:36.823Z,17.50
2022-10-01T14:09:15.033Z,17.70
2022-10-01T14:12:06.025Z,17.80
2022-10-01T14:14:58.235Z,18.10
2022-10-01T14:17:31.193Z,18.20
2022-10-01T14:19:59.875Z,18.30
2022-10-01T14:22:36.139Z,18.30
2022-10-01T14:25:17.271Z,18.40
2022-10-01T14:28:11.625Z,18.40
2022-10-01T14:31:16.631Z,18.30
2022-10-01T14:34:02.227Z,18.30
2022-10-01T14:36:37.605Z,18.20
2022-10-01T14:39:22.508Z,18.10
2022-10-01T14:41:51.945Z,18.00
2022-10-01T14:44:29.482Z,17.80
2022-10-01T14:46:58.416Z,17.80
2022-10-01T14:49:32.736Z,17.80
2022-10-01T14:52:13.867Z,17.80
2022-10-01T15:06:46.215Z,15.30
2022-10-01T15:09:19.079Z,14.70
2022-10-01T15:15:05.296Z,14.00
2022-10-01T15:17:37.654Z,13.60
2022-10-01T15:20:06.888Z,13.40
2022-10-01T15:22:35.545Z,13.20
2022-10-01T15:25:03.236Z,13.10
2022-10-01T15:27:33.642Z,13.00
2022-10-01T15:32:50.409Z,12.80
2022-10-01T15:35:23.875Z,12.80
2022-10-01T15:37:52.125Z,12.70
2022-10-01T15:40:39.588Z,12.70
2022-10-01T15:43:45.963Z,12.70
2022-10-01T15:46:22.320Z,12.60
2022-10-01T15:49:12.491Z,12.80
2022-10-01T15:52:25.700Z,12.80
2022-10-01T15:55:00.572Z,12.80
2022-10-01T15:57:33.712Z,12.80
2022-10-01T16:00:01.440Z,12.90
2022-10-01T16:02:31.002Z,12.90
2022-10-01T16:05:09.475Z,12.80
2022-10-01T16:07:37.951Z,12.80
2022-10-01T16:10:27.402Z,12.80
2022-10-01T16:12:54.583Z,12.80
2022-10-01T16:15:31.006Z,12.70
2022-10-01T16:18:12.122Z,12.70
2022-10-01T16:20:46.622Z,12.70
2022-10-01T16:26:29.161Z,12.60
2022-10-01T16:28:58.289Z,12.60
2022-10-01T16:31:26.047Z,12.60
2022-10-01T16:33:53.425Z,12.60
2022-10-01T16:36:21.932Z,12.40
2022-10-01T16:38:49.443Z,12.50
2022-10-01T16:41:24.299Z,12.40
2022-10-01T16:43:56.155Z,12.40
2022-10-01T16:46:26.445Z,12.40
2022-10-01T16:48:53.500Z,12.30
2022-10-01T16:51:22.100Z,12.30
2022-10-01T16:53:50.313Z,12.20
2022-10-01T16:56:17.544Z,12.30
2022-10-01T17:01:56.031Z,12.20
2022-10-01T17:04:29.288Z,12.10
2022-10-01T17:06:58.887Z,12.20
2022-10-01T17:09:26.121Z,12.10
2022-10-01T17:11:54.157Z,12.10
2022-10-01T17:14:22.042Z,12.10
2022-10-01T17:16:50.729Z,12.10
2022-10-01T17:19:18.614Z,12.10
2022-10-01T17:21:47.012Z,12.10
2022-10-01T17:24:14.616Z,12.00
2022-10-01T17:26:45.935Z,12.00
2022-10-01T17:29:19.246Z,12.00
2022-10-01T17:31:56.896Z,12.00
2022-10-01T17:34:25.140Z,12.00
2022-10-01T17:36:53.771Z,12.00
2022-10-01T17:39:21.371Z,12.10
2022-10-01T17:41:52.031Z,12.10
2022-10-01T17:44:19.460Z,12.20
2022-10-01T17:46:49.917Z,12.20
2022-10-01T17:49:24.396Z,12.30
2022-10-01T17:51:53.327Z,12.40
2022-10-01T17:54:21.392Z,12.40
2022-10-01T17:56:54.186Z,12.40
2022-10-01T18:02:41.553Z,12.30
2022-10-01T18:05:12.134Z,12.30
2022-10-01T18:07:39.285Z,12.40
2022-10-01T18:10:08.385Z,12.40
2022-10-01T18:12:35.417Z,12.40
2022-10-01T18:15:02.435Z,12.50
2022-10-01T18:17:32.086Z,12.50
2022-10-01T18:19:59.250Z,12.40
2022-10-01T18:22:27.338Z,12.40
2022-10-01T18:24:54.547Z,12.40
2022-10-01T18:27:21.508Z,12.40
2022-10-01T18:29:48.520Z,12.40
2022-10-01T18:32:27.794Z,12.40
2022-10-01T18:34:59.819Z,12.40
2022-10-01T18:38:00.448Z,12.30
2022-10-01T18:40:30.465Z,12.30
2022-10-01T18:43:13.374Z,12.30
2022-10-01T18:45:51.339Z,12.30
2022-10-01T18:48:49.429Z,12.30
2022-10-01T18:51:24.998Z,12.20
2022-10-01T18:54:18.105Z,12.20
2022-10-01T18:57:16.317Z,12.20
2022-10-01T18:59:58.411Z,12.20
2022-10-01T19:02:51.269Z,12.20
2022-10-01T19:05:59.994Z,12.30
2022-10-01T19:08:52.324Z,12.30
2022-10-01T19:11:57.108Z,12.30
2022-10-01T19:14:36.199Z,12.30
2022-10-01T19:17:33.411Z,12.20
2022-10-01T19:20:15.760Z,12.30
2022-10-01T19:23:12.748Z,12.30
2022-10-01T19:25:55.401Z,12.40
2022-10-01T19:28:49.079Z,12.30
2022-10-01T19:31:43.002Z,12.40
2022-10-01T19:34:28.621Z,12.40
2022-10-01T19:37:02.213Z,12.40
2022-10-01T19:39:37.595Z,12.40
2022-10-01T19:42:26.085Z,12.30
2022-10-01T19:45:03.036Z,12.30
2022-10-01T19:47:44.009Z,12.30
2022-10-01T19:50:29.043Z,12.20
2022-10-01T19:52:58.612Z,12.20
2022-10-01T19:55:34.013Z,12.20
2022-10-01T19:58:16.459Z,12.10
2022-10-01T20:00:47.306Z,12.10
2022-10-01T20:03:37.330Z,12.10
2022-10-01T20:06:38.379Z,12.10
2022-10-01T20:09:30.018Z,12.10
2022-10-01T20:12:26.245Z,12.00
2022-10-01T20:15:14.671Z,12.00
2022-10-01T20:17:57.631Z,12.00
2022-10-01T20:20:36.023Z,12.00
2022-10-01T20:23:27.496Z,12.00
2022-10-01T20:26:17.296Z,11.90
2022-10-01T20:28:56.732Z,11.90
2022-10-01T20:31:33.662Z,11.90
2022-10-01T20:34:05.231Z,11.90
2022-10-01T20:36:56.655Z,11.90
2022-10-01T20:39:33.645Z,11.90
2022-10-01T20:42:00.899Z,11.90
2022-10-01T20:44:33.599Z,11.90
2022-10-01T20:47:04.855Z,11.90
2022-10-01T20:49:43.331Z,11.90
2022-10-01T20:52:38.919Z,11.90
2022-10-01T20:55:12.103Z,11.90
2022-10-01T20:57:50.597Z,11.90
2022-10-01T21:00:24.072Z,11.90
2022-10-01T21:03:12.381Z,11.80
2022-10-01T21:05:48.954Z,11.90
2022-10-01T21:08:27.637Z,11.90
2022-10-01T21:11:02.265Z,11.90
2022-10-01T21:13:41.097Z,11.80
2022-10-01T21:16:39.403Z,11.80
2022-10-01T21:19:46.098Z,11.90
2022-10-01T21:22:33.264Z,11.90
2022-10-01T21:25:31.323Z,11.90
2022-10-01T21:28:30.106Z,11.90
2022-10-01T21:31:34.898Z,11.90
2022-10-01T21:34:17.643Z,11.90
2022-10-01T21:36:44.418Z,11.90
2022-10-01T21:39:24.996Z,12.00
2022-10-01T21:42:01.671Z,11.90
2022-10-01T21:44:40.531Z,11.90
2022-10-01T21:47:27.702Z,11.90
2022-10-01T21:50:22.669Z,11.90
2022-10-01T21:52:52.359Z,11.90
2022-10-01T21:55:30.077Z,11.90
2022-10-01T21:58:35.090Z,11.90
2022-10-01T22:01:15.894Z,12.00
2022-10-01T22:04:20.093Z,12.00
2022-10-01T22:06:53.120Z,12.00
2022-10-01T22:09:38.899Z,12.00
2022-10-01T22:12:07.189Z,12.00
2022-10-01T22:14:34.370Z,12.00
2022-10-01T22:17:13.493Z,12.00
2022-10-01T22:19:48.656Z,12.00
2022-10-01T22:22:23.024Z,12.00
2022-10-01T22:24:53.013Z,12.00
2022-10-01T22:27:35.165Z,12.00
2022-10-01T22:30:18.928Z,12.00
2022-10-01T22:33:11.268Z,12.00
2022-10-01T22:36:07.627Z,12.00
2022-10-01T22:38:54.443Z,12.00
2022-10-01T22:41:28.684Z,12.00
2022-10-01T22:43:56.063Z,12.00
2022-10-01T22:46:30.048Z,12.00
2022-10-01T22:49:14.917Z,12.00
2022-10-01T22:51:53.743Z,12.00
2022-10-01T22:54:38.707Z,12.00
2022-10-01T22:57:11.796Z,12.10
2022-10-01T22:59:38.575Z,12.00
2022-10-01T23:02:27.461Z,12.00
2022-10-01T23:05:14.535Z,12.00
2022-10-01T23:08:03.236Z,12.00
2022-10-01T23:10:48.174Z,12.00
2022-10-01T23:13:42.058Z,12.00
2022-10-01T23:16:21.011Z,12.00
2022-10-01T23:18:56.605Z,12.00
2022-10-01T23:21:37.237Z,12.00
2022-10-01T23:24:31.718Z,12.00
2022-10-01T23:27:24.956Z,12.00
2022-10-01T23:30:03.754Z,11.90
2022-10-01T23:32:47.026Z,11.90
2022-10-01T23:35:19.162Z,11.90
2022-10-01T23:38:14.213Z,11.90
2022-10-01T23:40:43.765Z,11.90
2022-10-01T23:43:25.859Z,11.90
2022-10-01T23:45:59.014Z,11.90
2022-10-01T23:48:39.006Z,11.80
2022-10-01T23:51:27.199Z,11.80
2022-10-01T23:54:23.296Z,11.80
2022-10-01T23:57:06.826Z,11.80
2022-10-01T23:59:58.926Z,11.80
